Time;durP1;ratioP1;P1;durP2;ratioP2;P2;SDS_P1;SDS_P2;PMS_P1;PMS_P2;Temp;Humidity;BMP_temperature;BMP_pressure;BME280_temperature;BME280_humidity;BME280_pressure;Samples;Min_cycle;Max_cycle;Signal;HPM_P1;HPM_P2
2021/12/15 00:00:45;;;;;;;31.37;27.77;;;;;22.20;101789.00;;;;2100669;28;20674;-64
2021/12/15 00:01:45;;;;;;;29.90;26.63;;;;;22.30;101793.00;;;;2100854;28;20211;-64
2021/12/15 00:02:46;;;;;;;28.17;25.30;;;;;22.30;101786.00;;;;2094220;28;20219;-64
2021/12/15 00:03:46;;;;;;;31.90;27.60;;;;;22.20;101788.00;;;;2083701;28;20307;-64
2021/12/15 00:04:50;;;;;;;28.90;24.47;;;;;22.20;101786.00;;;;2083722;28;20217;-64
2021/12/15 00:05:51;;;;;;;29.08;25.98;;;;;22.20;101781.00;;;;2100758;28;20215;-64
2021/12/15 00:06:51;;;;;;;31.20;25.53;;;;;22.20;101780.00;;;;2091732;28;20260;-64
2021/12/15 00:07:59;;;;;;;30.50;26.30;;;;;22.20;101791.00;;;;2091797;28;20455;-64
2021/12/15 00:09:00;;;;;;;31.52;25.77;;;;;22.20;101784.00;;;;2097331;28;20207;-64
2021/12/15 00:10:00;;;;;;;28.93;24.57;;;;;22.20;101778.00;;;;2100735;28;20286;-64
2021/12/15 00:11:01;;;;;;;30.63;24.30;;;;;22.20;101783.00;;;;2100645;28;20446;-64
2021/12/15 00:12:04;;;;;;;26.03;23.23;;;;;22.20;101790.00;;;;2100751;28;20250;-64
2021/12/15 00:13:04;;;;;;;25.92;23.10;;;;;22.20;101790.00;;;;2100834;28;20209;-64
2021/12/15 00:14:25;;;;;;;26.67;23.77;;;;;22.20;101790.00;;;;2100779;28;20200;-64
2021/12/15 00:15:28;;;;;;;24.77;22.10;;;;;22.20;101789.00;;;;2098271;28;20215;-64
2021/12/15 00:16:28;;;;;;;26.98;23.83;;;;;22.20;101785.00;;;;2100877;28;20219;-65
2021/12/15 00:17:29;;;;;;;23.70;21.10;;;;;22.20;101789.00;;;;2100731;28;20211;-65
2021/12/15 00:18:29;;;;;;;25.77;23.07;;;;;22.10;101798.00;;;;2100732;28;20213;-64
2021/12/15 00:19:29;;;;;;;23.67;21.20;;;;;22.10;101790.00;;;;2100882;28;20215;-65
2021/12/15 00:20:30;;;;;;;25.10;21.93;;;;;22.10;101788.00;;;;2100714;28;20240;-64
2021/12/15 00:21:30;;;;;;;26.37;22.40;;;;;22.10;101785.00;;;;2090858;28;20224;-64
2021/12/15 00:22:31;;;;;;;28.00;22.87;;;;;22.10;101793.00;;;;2092010;28;20209;-64
2021/12/15 00:23:31;;;;;;;24.10;21.43;;;;;22.10;101794.00;;;;2092114;28;20244;-64
2021/12/15 00:24:31;;;;;;;22.67;19.70;;;;;22.10;101791.00;;;;2100965;28;20255;-64
2021/12/15 00:25:33;;;;;;;23.37;20.87;;;;;22.10;101789.00;;;;2100992;28;20208;-64
2021/12/15 00:26:34;;;;;;;22.73;20.30;;;;;22.10;101785.00;;;;2100921;28;20219;-64
2021/12/15 00:27:34;;;;;;;22.60;20.13;;;;;22.10;101797.00;;;;2100991;28;20206;-64
2021/12/15 00:28:34;;;;;;;22.80;20.00;;;;;22.10;101794.00;;;;2101023;28;20207;-64
2021/12/15 00:29:35;;;;;;;22.53;20.13;;;;;22.10;101794.00;;;;2100638;28;20207;-64
2021/12/15 00:30:36;;;;;;;21.60;19.30;;;;;22.10;101800.00;;;;2100293;28;20418;-64
2021/12/15 00:31:37;;;;;;;22.20;19.87;;;;;22.10;101797.00;;;;2100720;28;20583;-64
2021/12/15 00:32:37;;;;;;;20.05;18.02;;;;;22.10;101805.00;;;;2100763;28;20465;-64
2021/12/15 00:33:39;;;;;;;21.43;19.10;;;;;22.10;101800.00;;;;2100633;28;20594;-65
2021/12/15 00:34:40;;;;;;;22.35;19.60;;;;;22.10;101803.00;;;;2100608;28;20226;-64
2021/12/15 00:35:41;;;;;;;21.77;19.50;;;;;22.10;101803.00;;;;2103054;28;20214;-64
2021/12/15 00:36:44;;;;;;;21.47;19.07;;;;;22.10;101797.00;;;;2089483;28;20243;-64
2021/12/15 00:37:44;;;;;;;21.33;18.73;;;;;22.10;101806.00;;;;2091933;28;20291;-64
2021/12/15 00:38:45;;;;;;;20.10;18.10;;;;;22.10;101798.00;;;;2090202;28;20216;-64
2021/12/15 00:39:45;;;;;;;20.17;18.07;;;;;22.10;101809.00;;;;2099616;28;20200;-65
2021/12/15 00:40:45;;;;;;;19.30;17.20;;;;;22.10;101808.00;;;;2081578;28;20270;-65
2021/12/15 00:41:46;;;;;;;20.20;18.00;;;;;22.10;101805.00;;;;2081990;28;20212;-64
2021/12/15 00:42:46;;;;;;;20.37;18.17;;;;;22.10;101803.00;;;;2076707;28;20272;-64
2021/12/15 00:43:46;;;;;;;22.43;17.30;;;;;22.10;101807.00;;;;2089198;28;20243;-64
2021/12/15 00:44:47;;;;;;;19.40;17.30;;;;;22.10;101802.00;;;;2100124;28;20223;-64
2021/12/15 00:45:47;;;;;;;20.83;18.00;;;;;21.90;101797.00;;;;2100068;28;20212;-64
2021/12/15 00:46:50;;;;;;;19.10;17.00;;;;;22.10;101804.00;;;;2100101;28;20212;-64
2021/12/15 00:47:51;;;;;;;17.55;15.68;;;;;22.00;101801.00;;;;2099337;28;20583;-64
2021/12/15 00:48:51;;;;;;;20.50;17.30;;;;;22.10;101801.00;;;;2100504;28;20212;-64
2021/12/15 00:49:51;;;;;;;21.43;16.90;;;;;22.00;101799.00;;;;2100401;28;20265;-64
2021/12/15 00:50:52;;;;;;;19.33;16.90;;;;;22.00;101812.00;;;;2100174;28;20306;-64
2021/12/15 00:51:52;;;;;;;19.33;16.87;;;;;22.00;101798.00;;;;2100343;28;20280;-64
2021/12/15 00:52:53;;;;;;;17.03;15.30;;;;;22.00;101792.00;;;;2100603;28;20212;-64
2021/12/15 00:53:53;;;;;;;17.80;15.90;;;;;22.00;101799.00;;;;2100345;28;20295;-65
2021/12/15 00:54:53;;;;;;;18.40;16.40;;;;;22.00;101792.00;;;;2099787;28;20220;-64
2021/12/15 00:55:54;;;;;;;17.50;15.43;;;;;22.00;101790.00;;;;2100255;28;20824;-64
2021/12/15 00:56:54;;;;;;;18.23;15.77;;;;;22.00;101794.00;;;;2099830;28;20745;-64
2021/12/15 00:57:55;;;;;;;17.07;15.00;;;;;22.00;101798.00;;;;2100433;28;20219;-64
2021/12/15 00:58:55;;;;;;;17.53;15.73;;;;;22.00;101791.00;;;;2089869;28;20215;-64
2021/12/15 00:59:56;;;;;;;16.90;14.83;;;;;22.00;101795.00;;;;2099417;28;20219;-64
2021/12/15 01:00:58;;;;;;;16.93;14.93;;;;;22.00;101792.00;;;;2099950;28;20296;-64
2021/12/15 01:01:59;;;;;;;16.27;14.60;;;;;21.90;101795.00;;;;2100348;28;20275;-64
2021/12/15 01:02:59;;;;;;;16.30;14.70;;;;;22.00;101797.00;;;;2100266;28;20215;-64
2021/12/15 01:03:59;;;;;;;15.90;14.03;;;;;22.00;101793.00;;;;2100287;28;20714;-64
2021/12/15 01:05:00;;;;;;;17.17;14.40;;;;;22.00;101791.00;;;;2100463;28;20216;-64
2021/12/15 01:06:06;;;;;;;16.10;14.03;;;;;22.00;101789.00;;;;2100191;28;20222;-64
2021/12/15 01:07:08;;;;;;;15.25;13.70;;;;;22.00;101794.00;;;;2095583;28;20216;-64
2021/12/15 01:08:12;;;;;;;15.20;13.27;;;;;22.00;101795.00;;;;2096296;28;20710;-64
2021/12/15 01:09:18;;;;;;;15.23;13.63;;;;;21.90;101790.00;;;;2099692;28;20225;-64
2021/12/15 01:10:24;;;;;;;16.23;13.80;;;;;22.00;101790.00;;;;2099404;28;20216;-64
2021/12/15 01:12:05;;;;;;;14.40;12.98;;;;;21.90;101793.00;;;;2090224;28;20215;-64
2021/12/15 01:20:32;;;;;;;14.15;12.75;;;;;21.90;101805.00;;;;2099342;28;20207;-64
2021/12/15 01:21:32;;;;;;;12.90;11.05;;;;;21.90;101798.00;;;;2096130;28;20218;-64
2021/12/15 01:22:36;;;;;;;14.07;12.10;;;;;21.90;101801.00;;;;2100087;28;20204;-64
2021/12/15 01:23:36;;;;;;;13.85;12.45;;;;;21.90;101810.00;;;;2100251;28;20331;-64
2021/12/15 01:24:36;;;;;;;14.17;12.53;;;;;21.90;101800.00;;;;2100318;28;20230;-64
2021/12/15 01:25:42;;;;;;;13.53;12.13;;;;;21.90;101802.00;;;;2099859;28;20453;-64
2021/12/15 01:26:43;;;;;;;13.57;12.25;;;;;21.90;101789.00;;;;2098541;28;20728;-64
2021/12/15 01:27:43;;;;;;;14.00;11.97;;;;;21.90;101805.00;;;;2099511;28;20212;-64
2021/12/15 01:28:43;;;;;;;13.00;11.70;;;;;21.90;101805.00;;;;2099716;28;20771;-64
2021/12/15 01:29:44;;;;;;;13.97;12.57;;;;;21.90;101808.00;;;;2100082;28;20629;-64
2021/12/15 01:30:45;;;;;;;14.07;12.27;;;;;21.80;101796.00;;;;2085944;28;20225;-64
2021/12/15 01:31:45;;;;;;;13.60;12.30;;;;;21.90;101795.00;;;;2099552;28;20270;-64
2021/12/15 01:32:46;;;;;;;12.77;11.47;;;;;21.80;101801.00;;;;2100211;28;20306;-64
2021/12/15 01:33:46;;;;;;;12.30;11.00;;;;;21.80;101804.00;;;;2100504;28;20447;-64
2021/12/15 01:34:46;;;;;;;13.60;11.90;;;;;21.80;101800.00;;;;2100301;28;20225;-64
2021/12/15 01:35:47;;;;;;;14.63;11.60;;;;;21.80;101799.00;;;;2100490;28;20246;-64
2021/12/15 01:36:48;;;;;;;14.25;11.95;;;;;21.90;101800.00;;;;2100310;28;20216;-64
2021/12/15 01:37:48;;;;;;;11.97;10.70;;;;;21.80;101798.00;;;;2091536;28;20243;-64
2021/12/15 01:38:50;;;;;;;13.37;12.07;;;;;21.80;101808.00;;;;2091585;28;20216;-64
2021/12/15 01:39:54;;;;;;;12.45;11.25;;;;;21.80;101798.00;;;;2100218;28;20227;-64
2021/12/15 01:40:54;;;;;;;11.85;10.65;;;;;21.80;101803.00;;;;2099867;28;20726;-64
2021/12/15 01:41:56;;;;;;;12.60;11.30;;;;;21.80;101805.00;;;;2100091;28;20215;-64
2021/12/15 01:42:56;;;;;;;12.80;11.50;;;;;21.80;101800.00;;;;2100113;28;20248;-64
2021/12/15 01:48:06;;;;;;;11.80;9.50;;;;;21.80;101794.00;;;;2098445;28;20215;-64
2021/12/15 01:49:13;;;;;;;11.50;10.30;;;;;21.80;101803.00;;;;2088483;28;20211;-64
2021/12/15 01:50:13;;;;;;;10.85;9.75;;;;;21.80;101804.00;;;;2085581;28;20560;-64
2021/12/15 01:51:13;;;;;;;11.33;10.17;;;;;21.80;101796.00;;;;2082534;28;20359;-64
2021/12/15 01:52:19;;;;;;;12.00;10.80;;;;;21.80;101794.00;;;;2090369;28;20209;-64
2021/12/15 01:53:20;;;;;;;10.75;9.65;;;;;21.80;101807.00;;;;2095259;28;20700;-64
2021/12/15 01:54:21;;;;;;;11.50;10.30;;;;;21.80;101802.00;;;;2100133;28;20211;-64
2021/12/15 01:55:21;;;;;;;11.07;9.97;;;;;21.70;101803.00;;;;2101846;28;20199;-64
2021/12/15 01:56:21;;;;;;;10.33;9.40;;;;;21.80;101797.00;;;;2101915;28;20196;-64
2021/12/15 01:57:23;;;;;;;10.93;9.67;;;;;21.70;101804.00;;;;2101598;28;20237;-64
2021/12/15 01:58:23;;;;;;;10.60;9.50;;;;;21.70;101811.00;;;;2101787;28;20243;-64
2021/12/15 01:59:24;;;;;;;11.33;10.17;;;;;21.70;101799.00;;;;2101081;28;20211;-64
2021/12/15 02:00:28;;;;;;;11.07;9.97;;;;;21.70;101800.00;;;;2101866;28;20215;-64
2021/12/15 02:01:28;;;;;;;10.60;9.45;;;;;21.70;101801.00;;;;2097964;28;20203;-64
2021/12/15 02:02:28;;;;;;;10.77;9.77;;;;;21.60;101801.00;;;;2101749;28;20203;-64
2021/12/15 02:03:29;;;;;;;10.20;9.20;;;;;21.70;101805.00;;;;2101714;28;20203;-64
2021/12/15 02:04:29;;;;;;;10.50;9.40;;;;;21.70;101805.00;;;;2101669;28;20211;-64
2021/12/15 02:05:30;;;;;;;9.77;8.77;;;;;21.70;101788.00;;;;2101809;28;20210;-64
2021/12/15 02:06:30;;;;;;;10.23;9.20;;;;;21.70;101803.00;;;;2101752;28;20234;-64
2021/12/15 02:07:31;;;;;;;9.93;8.93;;;;;21.70;101799.00;;;;2101437;28;20586;-64
2021/12/15 02:08:31;;;;;;;9.73;8.83;;;;;21.70;101799.00;;;;2101750;28;20224;-64
2021/12/15 02:10:01;;;;;;;10.10;9.10;;;;;21.70;101797.00;;;;2101653;28;20212;-64
2021/12/15 02:10:52;;;;;;;10.35;9.35;;;;;21.70;101794.00;;;;2099562;28;20724;-64
2021/12/15 02:11:52;;;;;;;9.97;8.97;;;;;21.70;101808.00;;;;2101574;28;20204;-64
2021/12/15 02:12:52;;;;;;;10.10;9.07;;;;;21.70;101807.00;;;;2101720;28;20232;-64
2021/12/15 02:13:53;;;;;;;10.80;9.80;;;;;21.70;101804.00;;;;2101778;28;20570;-64
2021/12/15 02:14:53;;;;;;;9.30;8.37;;;;;21.70;101799.00;;;;2092703;28;20680;-64
2021/12/15 02:15:55;;;;;;;9.77;8.80;;;;;21.70;101802.00;;;;2093115;28;20318;-64
2021/12/15 02:16:55;;;;;;;9.25;8.43;;;;;21.70;101803.00;;;;2101733;28;20218;-64
2021/12/15 02:17:56;;;;;;;10.40;9.30;;;;;21.70;101810.00;;;;2093063;28;20235;-64
2021/12/15 02:18:56;;;;;;;9.33;8.47;;;;;21.70;101806.00;;;;2093045;28;20330;-64
2021/12/15 02:19:57;;;;;;;10.40;9.37;;;;;21.70;101799.00;;;;2102083;28;20842;-64
2021/12/15 02:20:59;;;;;;;10.30;9.20;;;;;21.70;101802.00;;;;2101789;28;20718;-64
2021/12/15 02:22:00;;;;;;;10.32;8.73;;;;;21.70;101805.00;;;;2101837;28;20741;-64
2021/12/15 02:23:00;;;;;;;9.90;8.90;;;;;21.60;101806.00;;;;2102068;28;20210;-63
2021/12/15 02:24:01;;;;;;;11.70;9.30;;;;;21.70;101801.00;;;;2092698;28;20307;-64
2021/12/15 02:25:03;;;;;;;9.93;8.93;;;;;21.70;101800.00;;;;2088774;28;20208;-64
2021/12/15 02:26:08;;;;;;;9.70;8.77;;;;;21.70;101804.00;;;;2101713;28;20456;-64
2021/12/15 02:27:11;;;;;;;8.65;7.82;;;;;21.70;101805.00;;;;2092449;28;20220;-64
2021/12/15 02:28:11;;;;;;;8.90;8.00;;;;;21.70;101807.00;;;;2092959;28;20695;-64
2021/12/15 02:29:16;;;;;;;9.63;8.73;;;;;21.70;101794.00;;;;2092570;28;20213;-64
2021/12/15 02:30:31;;;;;;;9.50;8.70;;;;;21.70;101796.00;;;;2092789;28;20355;-64
2021/12/15 02:32:54;;;;;;;9.77;8.85;;;;;21.60;101805.00;;;;2101868;28;20215;-64
2021/12/15 02:34:19;;;;;;;9.32;8.43;;;;;21.60;101803.00;;;;2092359;28;20218;-64
2021/12/15 02:37:56;;;;;;;8.45;7.65;;;;;21.60;101806.00;;;;2100916;28;20212;-64
2021/12/15 02:38:58;;;;;;;8.50;7.73;;;;;21.60;101804.00;;;;2101056;28;20239;-64
2021/12/15 02:40:04;;;;;;;10.13;8.30;;;;;21.60;101806.00;;;;2092005;28;20209;-64
2021/12/15 02:41:09;;;;;;;8.50;7.70;;;;;21.60;101797.00;;;;2100936;28;20303;-64
2021/12/15 02:42:09;;;;;;;9.02;8.18;;;;;21.60;101804.00;;;;2092551;28;20708;-64
2021/12/15 02:43:09;;;;;;;8.63;7.80;;;;;21.60;101799.00;;;;2093169;28;20257;-64
2021/12/15 02:44:13;;;;;;;8.63;7.77;;;;;21.60;101800.00;;;;2101687;28;20227;-64
2021/12/15 02:45:17;;;;;;;9.40;8.60;;;;;21.60;101793.00;;;;2101450;28;20208;-64
2021/12/15 02:46:18;;;;;;;8.98;8.07;;;;;21.60;101806.00;;;;2101444;28;20215;-64
2021/12/15 02:47:21;;;;;;;9.20;8.30;;;;;21.60;101799.00;;;;2101224;28;20215;-64
2021/12/15 02:48:21;;;;;;;8.88;7.50;;;;;21.60;101800.00;;;;2101180;28;20210;-64
2021/12/15 02:49:24;;;;;;;9.30;8.50;;;;;21.60;101798.00;;;;2101426;28;20702;-64
2021/12/15 02:50:25;;;;;;;8.60;7.80;;;;;21.60;101793.00;;;;2101174;28;20299;-64
2021/12/15 02:51:26;;;;;;;9.75;8.85;;;;;21.60;101790.00;;;;2101249;28;20219;-64
2021/12/15 02:52:26;;;;;;;8.60;7.80;;;;;21.60;101800.00;;;;2101383;28;20212;-64
2021/12/15 02:53:26;;;;;;;8.40;7.60;;;;;21.60;101800.00;;;;2101463;28;20227;-64
2021/12/15 02:54:27;;;;;;;8.40;7.47;;;;;21.50;101796.00;;;;2100874;28;20254;-64
2021/12/15 02:55:27;;;;;;;8.43;7.60;;;;;21.60;101798.00;;;;2101320;28;20247;-64
2021/12/15 02:56:28;;;;;;;8.13;7.33;;;;;21.60;101798.00;;;;2100985;28;20695;-64
2021/12/15 02:57:28;;;;;;;7.93;7.13;;;;;21.60;101800.00;;;;2100549;28;20266;-64
2021/12/15 02:58:33;;;;;;;8.80;7.90;;;;;21.60;101788.00;;;;2089840;28;20219;-64
2021/12/15 02:59:44;;;;;;;7.85;7.10;;;;;21.60;101787.00;;;;2092704;28;20209;-64
2021/12/15 03:00:57;;;;;;;8.25;7.45;;;;;21.50;101785.00;;;;2097843;28;20220;-64
2021/12/15 03:02:09;;;;;;;7.88;7.13;;;;;21.50;101800.00;;;;2100649;28;20220;-64
2021/12/15 03:04:41;;;;;;;7.78;6.65;;;;;21.50;101794.00;;;;2091847;28;20216;-64
2021/12/15 03:05:50;;;;;;;7.72;7.03;;;;;21.50;101786.00;;;;2085650;28;21467;-64
2021/12/15 03:06:57;;;;;;;7.78;7.03;;;;;21.50;101789.00;;;;2097366;28;20216;-64
2021/12/15 03:09:30;;;;;;;7.60;6.90;;;;;21.50;101795.00;;;;2093064;28;20320;-64
2021/12/15 03:15:20;;;;;;;7.80;7.00;;;;;21.50;101789.00;;;;2098792;28;20215;-64
2021/12/15 03:15:57;;;;;;;8.10;7.30;;;;;21.50;101772.00;;;;2099703;28;20220;-64
2021/12/15 03:16:58;;;;;;;8.30;7.50;;;;;21.50;101783.00;;;;2096840;28;20781;-64
2021/12/15 03:18:13;;;;;;;6.93;6.23;;;;;21.50;101786.00;;;;2090294;28;20218;-64
2021/12/15 03:19:13;;;;;;;8.43;7.30;;;;;21.50;101783.00;;;;2098709;28;20216;-64
2021/12/15 03:20:16;;;;;;;7.83;7.03;;;;;21.50;101783.00;;;;2091513;28;20234;-64
2021/12/15 03:21:21;;;;;;;8.13;7.43;;;;;21.50;101781.00;;;;2100638;28;20219;-64
2021/12/15 03:22:22;;;;;;;8.13;7.43;;;;;21.50;101782.00;;;;2100912;28;20211;-64
2021/12/15 03:23:41;;;;;;;8.43;7.63;;;;;21.50;101784.00;;;;2100857;28;20208;-64
2021/12/15 03:24:41;;;;;;;7.47;6.78;;;;;21.50;101783.00;;;;2096974;28;20218;-64
2021/12/15 03:25:42;;;;;;;8.13;7.43;;;;;21.50;101792.00;;;;2083749;28;20590;-64
2021/12/15 03:26:50;;;;;;;8.10;7.30;;;;;21.50;101790.00;;;;2084049;28;20204;-64
2021/12/15 03:35:46;;;;;;;7.43;6.70;;;;;21.40;101786.00;;;;2100639;28;20212;-64
2021/12/15 03:37:06;;;;;;;8.23;7.43;;;;;21.40;101791.00;;;;2097659;28;20260;-64
2021/12/15 03:38:07;;;;;;;8.90;6.60;;;;;21.40;101792.00;;;;2099077;28;20774;-64
2021/12/15 03:39:09;;;;;;;8.47;6.80;;;;;21.50;101793.00;;;;2101293;28;20200;-64
2021/12/15 03:40:11;;;;;;;8.80;6.97;;;;;21.40;101793.00;;;;2101339;28;20243;-64
2021/12/15 03:41:12;;;;;;;7.93;7.13;;;;;21.40;101788.00;;;;2092090;28;20763;-64
2021/12/15 03:42:16;;;;;;;7.93;7.13;;;;;21.40;101786.00;;;;2092415;28;20239;-64
2021/12/15 03:43:17;;;;;;;7.78;6.65;;;;;21.40;101784.00;;;;2101191;28;20208;-64
2021/12/15 03:44:17;;;;;;;7.40;6.70;;;;;21.40;101786.00;;;;2101391;28;20215;-64
2021/12/15 03:45:21;;;;;;;8.20;7.40;;;;;21.40;101798.00;;;;2101180;28;20239;-64
2021/12/15 03:46:21;;;;;;;7.65;6.95;;;;;21.40;101787.00;;;;2097614;28;20210;-64
2021/12/15 03:47:23;;;;;;;7.30;6.60;;;;;21.40;101789.00;;;;2100884;28;20714;-64
2021/12/15 03:48:27;;;;;;;7.80;7.10;;;;;21.40;101790.00;;;;2100537;28;20222;-64
2021/12/15 03:49:27;;;;;;;7.57;6.88;;;;;21.40;101794.00;;;;2101081;28;20639;-64
2021/12/15 03:50:28;;;;;;;7.97;6.50;;;;;21.40;101796.00;;;;2100313;28;20548;-64
2021/12/15 03:51:28;;;;;;;6.93;6.33;;;;;21.40;101798.00;;;;2100571;28;20772;-64
2021/12/15 03:52:29;;;;;;;9.30;7.63;;;;;21.40;101789.00;;;;2100846;28;20212;-64
2021/12/15 03:53:29;;;;;;;7.60;6.80;;;;;21.40;101789.00;;;;2100899;28;20683;-64
2021/12/15 03:54:29;;;;;;;7.73;6.97;;;;;21.40;101799.00;;;;2100398;28;20262;-64
2021/12/15 03:55:31;;;;;;;7.50;6.80;;;;;21.40;101802.00;;;;2101337;28;20295;-64
2021/12/15 03:56:34;;;;;;;7.75;6.82;;;;;21.40;101801.00;;;;2100460;28;20248;-64
2021/12/15 03:57:35;;;;;;;7.40;6.70;;;;;21.40;101809.00;;;;2101235;28;20208;-64
2021/12/15 03:58:35;;;;;;;7.60;6.80;;;;;21.40;101798.00;;;;2101319;28;20230;-64
2021/12/15 03:59:40;;;;;;;8.20;7.40;;;;;21.40;101800.00;;;;2101122;28;20280;-64
2021/12/15 04:00:44;;;;;;;7.80;7.10;;;;;21.40;101802.00;;;;2100962;28;20203;-64
2021/12/15 04:01:44;;;;;;;7.95;7.18;;;;;21.40;101799.00;;;;2088209;28;20246;-64
2021/12/15 04:02:45;;;;;;;7.27;6.63;;;;;21.40;101800.00;;;;2092065;28;20220;-64
2021/12/15 04:03:46;;;;;;;7.53;6.80;;;;;21.40;101800.00;;;;2100807;28;20223;-64
2021/12/15 04:04:47;;;;;;;7.80;7.10;;;;;21.40;101806.00;;;;2100931;28;20231;-64
2021/12/15 04:05:47;;;;;;;7.70;6.90;;;;;21.40;101799.00;;;;2100737;28;20718;-64
2021/12/15 04:06:47;;;;;;;7.17;6.47;;;;;21.40;101808.00;;;;2100784;28;20208;-64
2021/12/15 04:07:48;;;;;;;8.10;7.27;;;;;21.40;101797.00;;;;2091170;28;20215;-64
2021/12/15 04:08:49;;;;;;;7.70;6.90;;;;;21.40;101810.00;;;;2091686;28;20228;-64
2021/12/15 04:09:49;;;;;;;7.03;6.33;;;;;21.30;101812.00;;;;2090491;28;20251;-64
2021/12/15 04:10:50;;;;;;;8.00;7.20;;;;;21.40;101805.00;;;;2091446;28;20213;-64
2021/12/15 04:11:52;;;;;;;7.33;6.63;;;;;21.30;101811.00;;;;2091801;28;20208;-64
2021/12/15 04:12:52;;;;;;;7.10;6.38;;;;;21.40;101817.00;;;;2090986;28;20212;-64
2021/12/15 04:13:58;;;;;;;6.80;6.20;;;;;21.30;101815.00;;;;2100049;28;20759;-64
2021/12/15 04:15:19;;;;;;;6.95;6.28;;;;;21.30;101812.00;;;;2100423;28;20219;-64
2021/12/15 04:17:36;;;;;;;7.00;6.35;;;;;21.30;101822.00;;;;2098986;28;20672;-64
2021/12/15 04:18:37;;;;;;;7.30;6.70;;;;;21.30;101820.00;;;;2090328;28;20220;-64
2021/12/15 04:19:37;;;;;;;7.80;7.10;;;;;21.30;101814.00;;;;2100082;28;20200;-64
2021/12/15 04:20:38;;;;;;;8.07;7.27;;;;;21.30;101815.00;;;;2099692;28;20239;-64
2021/12/15 04:21:39;;;;;;;7.93;7.00;;;;;21.30;101816.00;;;;2100203;28;20204;-64
2021/12/15 04:22:39;;;;;;;7.80;7.00;;;;;21.30;101814.00;;;;2091756;28;20579;-64
2021/12/15 04:23:39;;;;;;;6.63;6.03;;;;;21.30;101814.00;;;;2082170;28;20703;-64
2021/12/15 04:24:40;;;;;;;8.23;7.43;;;;;21.40;101821.00;;;;2100187;28;20207;-64
2021/12/15 04:25:40;;;;;;;7.80;7.00;;;;;21.30;101813.00;;;;2100659;28;20208;-64
2021/12/15 04:26:41;;;;;;;7.67;6.87;;;;;21.30;101818.00;;;;2100453;28;20211;-64
2021/12/15 04:27:52;;;;;;;8.10;7.40;;;;;21.30;101816.00;;;;2100314;28;20291;-64
2021/12/15 04:28:52;;;;;;;10.50;7.60;;;;;21.30;101802.00;;;;2091684;28;20231;-64
2021/12/15 04:29:53;;;;;;;7.53;6.83;;;;;21.30;101802.00;;;;2092077;28;20208;-64
2021/12/15 04:30:57;;;;;;;7.40;6.70;;;;;21.30;101810.00;;;;2100351;28;20213;-64
2021/12/15 04:32:01;;;;;;;7.57;6.88;;;;;21.30;101810.00;;;;2100610;28;20220;-64
2021/12/15 04:33:07;;;;;;;7.70;6.90;;;;;21.30;101806.00;;;;2097332;28;20697;-64
2021/12/15 04:34:09;;;;;;;6.82;6.15;;;;;21.30;101810.00;;;;2100335;28;20302;-64
2021/12/15 04:35:09;;;;;;;6.78;6.18;;;;;21.30;101821.00;;;;2100452;28;20293;-64
2021/12/15 04:36:11;;;;;;;7.70;6.50;;;;;21.30;101823.00;;;;2100620;28;20258;-64
2021/12/15 04:37:11;;;;;;;7.40;6.78;;;;;21.30;101822.00;;;;2099676;28;20231;-64
2021/12/15 04:38:12;;;;;;;7.97;7.17;;;;;21.30;101815.00;;;;2100487;28;20258;-64
2021/12/15 04:39:15;;;;;;;8.00;6.77;;;;;21.30;101820.00;;;;2096569;28;20208;-64
2021/12/15 04:40:16;;;;;;;6.90;6.20;;;;;21.30;101813.00;;;;2091435;28;20283;-64
2021/12/15 04:41:17;;;;;;;7.67;6.97;;;;;21.30;101822.00;;;;2091104;28;20219;-64
2021/12/15 04:42:19;;;;;;;7.13;6.07;;;;;21.20;101812.00;;;;2100385;28;20219;-64
2021/12/15 04:43:19;;;;;;;6.45;5.85;;;;;21.30;101818.00;;;;2100323;28;20207;-64
2021/12/15 04:44:23;;;;;;;7.93;7.13;;;;;21.30;101812.00;;;;2100571;28;20204;-64
2021/12/15 04:45:23;;;;;;;7.07;6.47;;;;;21.30;101809.00;;;;2100462;28;20208;-64
2021/12/15 04:46:26;;;;;;;7.20;6.50;;;;;21.30;101817.00;;;;2100564;28;20196;-64
2021/12/15 04:47:26;;;;;;;6.50;5.90;;;;;21.30;101815.00;;;;2100825;28;20215;-64
2021/12/15 04:48:26;;;;;;;7.40;6.53;;;;;21.30;101819.00;;;;2100901;28;20204;-64
2021/12/15 04:49:30;;;;;;;6.93;6.27;;;;;21.30;101813.00;;;;2100989;28;20270;-64
2021/12/15 04:50:30;;;;;;;7.35;6.65;;;;;21.20;101823.00;;;;2099944;28;20291;-64
2021/12/15 04:51:31;;;;;;;7.03;6.33;;;;;21.30;101823.00;;;;2100392;28;20223;-64
2021/12/15 04:52:32;;;;;;;6.57;5.97;;;;;21.30;101824.00;;;;2091581;28;20212;-64
2021/12/15 04:53:33;;;;;;;6.88;6.28;;;;;21.30;101817.00;;;;2091718;28;20219;-64
2021/12/15 04:54:33;;;;;;;6.80;6.20;;;;;21.20;101826.00;;;;2100535;28;20295;-64
2021/12/15 04:55:34;;;;;;;7.40;6.70;;;;;21.20;101826.00;;;;2095899;28;20212;-64
2021/12/15 04:56:35;;;;;;;7.70;6.95;;;;;21.20;101825.00;;;;2100675;28;20706;-64
2021/12/15 04:57:35;;;;;;;7.97;7.17;;;;;21.20;101822.00;;;;2100272;28;20208;-64
2021/12/15 04:58:35;;;;;;;7.27;6.60;;;;;21.20;101827.00;;;;2100398;28;20617;-64
2021/12/15 04:59:36;;;;;;;7.40;6.73;;;;;21.20;101825.00;;;;2100393;28;20215;-64
2021/12/15 05:00:39;;;;;;;5.83;5.33;;;;;21.20;101830.00;;;;2100104;28;20204;-64
2021/12/15 05:01:40;;;;;;;7.10;6.40;;;;;21.20;101829.00;;;;2100094;28;20675;-64
2021/12/15 05:02:40;;;;;;;7.33;6.63;;;;;21.20;101833.00;;;;2100071;28;20260;-64
2021/12/15 05:03:41;;;;;;;7.00;6.30;;;;;21.20;101834.00;;;;2100128;28;20247;-64
2021/12/15 05:04:41;;;;;;;6.80;6.13;;;;;21.20;101837.00;;;;2099892;28;20219;-64
2021/12/15 05:05:42;;;;;;;6.57;5.93;;;;;21.30;101828.00;;;;2099727;28;20219;-64
2021/12/15 05:06:42;;;;;;;7.20;6.50;;;;;21.20;101823.00;;;;2099801;28;20243;-64
2021/12/15 05:07:42;;;;;;;6.67;6.07;;;;;21.20;101836.00;;;;2100071;28;20208;-64
2021/12/15 05:08:43;;;;;;;7.70;6.50;;;;;21.20;101838.00;;;;2099913;28;20219;-64
2021/12/15 05:09:44;;;;;;;6.13;5.53;;;;;21.30;101836.00;;;;2100064;28;20299;-64
2021/12/15 05:10:45;;;;;;;6.53;5.85;;;;;21.20;101833.00;;;;2098756;28;20242;-64
2021/12/15 05:11:47;;;;;;;6.50;5.90;;;;;21.20;101833.00;;;;2099515;28;20219;-64
2021/12/15 05:12:48;;;;;;;5.97;5.40;;;;;21.20;101844.00;;;;2100045;28;20259;-64
2021/12/15 05:13:48;;;;;;;7.00;6.30;;;;;21.20;101838.00;;;;2100462;28;20238;-64
2021/12/15 05:14:49;;;;;;;6.23;5.63;;;;;21.20;101841.00;;;;2100600;28;20693;-64
2021/12/15 05:15:50;;;;;;;7.40;6.55;;;;;21.20;101835.00;;;;2100771;28;20250;-64
2021/12/15 05:16:51;;;;;;;6.60;6.00;;;;;21.10;101838.00;;;;2100560;28;20584;-64
2021/12/15 05:17:51;;;;;;;6.60;6.00;;;;;21.20;101835.00;;;;2100608;28;20212;-64
2021/12/15 05:18:51;;;;;;;6.20;5.60;;;;;21.20;101841.00;;;;2100675;28;20507;-64
2021/12/15 05:19:56;;;;;;;6.87;6.27;;;;;21.20;101833.00;;;;2100679;28;20208;-65
2021/12/15 05:20:58;;;;;;;6.53;5.93;;;;;21.10;101835.00;;;;2100359;28;20286;-64
2021/12/15 05:21:59;;;;;;;5.70;5.20;;;;;21.10;101835.00;;;;2100536;28;20207;-64
2021/12/15 05:23:01;;;;;;;6.80;6.20;;;;;21.20;101829.00;;;;2100317;28;20218;-64
2021/12/15 05:24:12;;;;;;;6.75;6.05;;;;;21.00;101834.00;;;;2100281;28;20271;-64
2021/12/15 05:25:12;;;;;;;6.55;5.95;;;;;21.20;101842.00;;;;2100378;28;20918;-64
2021/12/15 05:26:12;;;;;;;6.03;5.47;;;;;21.20;101839.00;;;;2099495;28;20215;-64
2021/12/15 05:27:14;;;;;;;6.10;5.50;;;;;21.20;101841.00;;;;2099502;28;20204;-64
2021/12/15 05:28:14;;;;;;;6.95;6.20;;;;;21.20;101837.00;;;;2100187;28;20204;-64
2021/12/15 05:29:15;;;;;;;6.37;5.77;;;;;21.20;101840.00;;;;2100543;28;20215;-64
2021/12/15 05:30:16;;;;;;;7.20;6.00;;;;;21.20;101841.00;;;;2091574;28;20260;-64
2021/12/15 05:31:17;;;;;;;6.07;5.47;;;;;21.10;101844.00;;;;2091651;28;20820;-64
2021/12/15 05:32:18;;;;;;;6.20;5.60;;;;;21.10;101842.00;;;;2100584;28;20212;-64
2021/12/15 05:33:19;;;;;;;6.80;6.20;;;;;21.10;101841.00;;;;2097848;28;20975;-64
2021/12/15 05:34:20;;;;;;;6.37;5.77;;;;;21.20;101838.00;;;;2100563;28;20242;-64
2021/12/15 05:35:23;;;;;;;6.63;6.03;;;;;21.10;101845.00;;;;2091649;28;20246;-64
2021/12/15 05:36:23;;;;;;;6.07;5.57;;;;;21.10;101840.00;;;;2092014;28;20606;-64